sensor_id;sensor_type;location;lat;lon;timestamp;P1;durP1;ratioP1;P2;durP2;ratioP2
79792;SDS011;69279;49.072;17.462;2023-04-24T00:00:26;2.13;;;1.92;;
79792;SDS011;69279;49.072;17.462;2023-04-24T00:02:52;2.08;;;1.67;;
79792;SDS011;69279;49.072;17.462;2023-04-24T00:05:21;1.95;;;1.75;;
79792;SDS011;69279;49.072;17.462;2023-04-24T00:07:47;2.00;;;1.80;;
79792;SDS011;69279;49.072;17.462;2023-04-24T00:10:13;1.75;;;1.58;;
79792;SDS011;69279;49.072;17.462;2023-04-24T00:12:38;2.10;;;1.90;;
79792;SDS011;69279;49.072;17.462;2023-04-24T00:15:04;1.75;;;1.63;;
79792;SDS011;69279;49.072;17.462;2023-04-24T00:17:30;2.17;;;1.98;;
79792;SDS011;69279;49.072;17.462;2023-04-24T00:19:55;2.08;;;1.60;;
79792;SDS011;69279;49.072;17.462;2023-04-24T00:22:23;2.20;;;1.88;;
79792;SDS011;69279;49.072;17.462;2023-04-24T00:24:49;1.80;;;1.65;;
79792;SDS011;69279;49.072;17.462;2023-04-24T00:27:15;2.30;;;2.10;;
79792;SDS011;69279;49.072;17.462;2023-04-24T00:29:40;2.33;;;1.83;;
79792;SDS011;69279;49.072;17.462;2023-04-24T00:32:05;2.10;;;1.90;;
79792;SDS011;69279;49.072;17.462;2023-04-24T00:34:31;2.08;;;1.88;;
79792;SDS011;69279;49.072;17.462;2023-04-24T00:36:57;2.33;;;1.77;;
79792;SDS011;69279;49.072;17.462;2023-04-24T00:39:22;2.28;;;1.90;;
79792;SDS011;69279;49.072;17.462;2023-04-24T00:41:48;2.10;;;1.90;;
79792;SDS011;69279;49.072;17.462;2023-04-24T00:44:14;2.10;;;1.90;;
79792;SDS011;69279;49.072;17.462;2023-04-24T00:46:39;1.92;;;1.73;;
79792;SDS011;69279;49.072;17.462;2023-04-24T00:49:05;1.80;;;1.50;;
79792;SDS011;69279;49.072;17.462;2023-04-24T00:51:31;1.98;;;1.65;;
79792;SDS011;69279;49.072;17.462;2023-04-24T00:53:57;2.03;;;1.83;;
79792;SDS011;69279;49.072;17.462;2023-04-24T00:56:23;2.00;;;1.65;;
79792;SDS011;69279;49.072;17.462;2023-04-24T00:58:49;2.10;;;1.77;;
79792;SDS011;69279;49.072;17.462;2023-04-24T01:01:14;1.83;;;1.73;;
79792;SDS011;69279;49.072;17.462;2023-04-24T01:03:40;1.67;;;1.50;;
79792;SDS011;69279;49.072;17.462;2023-04-24T01:06:05;1.90;;;1.70;;
79792;SDS011;69279;49.072;17.462;2023-04-24T01:08:31;2.10;;;1.90;;
79792;SDS011;69279;49.072;17.462;2023-04-24T01:10:57;2.50;;;2.00;;
79792;SDS011;69279;49.072;17.462;2023-04-24T01:13:23;2.00;;;1.80;;
79792;SDS011;69279;49.072;17.462;2023-04-24T01:15:48;2.17;;;1.98;;
79792;SDS011;69279;49.072;17.462;2023-04-24T01:18:14;2.20;;;1.65;;
79792;SDS011;69279;49.072;17.462;2023-04-24T01:20:40;1.95;;;1.80;;
79792;SDS011;69279;49.072;17.462;2023-04-24T01:23:06;2.75;;;1.98;;
79792;SDS011;69279;49.072;17.462;2023-04-24T01:25:32;2.08;;;1.88;;
79792;SDS011;69279;49.072;17.462;2023-04-24T01:27:58;2.25;;;1.92;;
79792;SDS011;69279;49.072;17.462;2023-04-24T01:30:24;2.40;;;2.20;;
79792;SDS011;69279;49.072;17.462;2023-04-24T01:32:50;2.10;;;1.90;;
79792;SDS011;69279;49.072;17.462;2023-04-24T01:35:16;2.10;;;1.90;;
79792;SDS011;69279;49.072;17.462;2023-04-24T01:37:42;2.05;;;1.85;;
79792;SDS011;69279;49.072;17.462;2023-04-24T01:40:07;2.08;;;1.70;;
79792;SDS011;69279;49.072;17.462;2023-04-24T01:42:34;2.00;;;1.80;;
79792;SDS011;69279;49.072;17.462;2023-04-24T01:44:59;1.85;;;1.75;;
79792;SDS011;69279;49.072;17.462;2023-04-24T01:47:25;1.65;;;1.38;;
79792;SDS011;69279;49.072;17.462;2023-04-24T01:49:51;2.38;;;2.17;;
79792;SDS011;69279;49.072;17.462;2023-04-24T01:52:16;1.95;;;1.73;;
79792;SDS011;69279;49.072;17.462;2023-04-24T01:54:43;2.05;;;1.80;;
79792;SDS011;69279;49.072;17.462;2023-04-24T01:57:09;2.22;;;1.70;;
79792;SDS011;69279;49.072;17.462;2023-04-24T01:59:34;1.73;;;1.52;;
79792;SDS011;69279;49.072;17.462;2023-04-24T02:02:01;2.05;;;1.67;;
79792;SDS011;69279;49.072;17.462;2023-04-24T02:04:27;1.73;;;1.48;;
79792;SDS011;69279;49.072;17.462;2023-04-24T02:06:52;2.10;;;1.90;;
79792;SDS011;69279;49.072;17.462;2023-04-24T02:09:18;1.92;;;1.70;;
79792;SDS011;69279;49.072;17.462;2023-04-24T02:11:43;1.98;;;1.70;;
79792;SDS011;69279;49.072;17.462;2023-04-24T02:14:08;2.05;;;1.70;;
79792;SDS011;69279;49.072;17.462;2023-04-24T02:16:34;1.80;;;1.70;;
79792;SDS011;69279;49.072;17.462;2023-04-24T02:19:00;1.90;;;1.70;;
79792;SDS011;69279;49.072;17.462;2023-04-24T02:21:26;2.10;;;1.90;;
79792;SDS011;69279;49.072;17.462;2023-04-24T02:23:52;1.88;;;1.75;;
79792;SDS011;69279;49.072;17.462;2023-04-24T02:26:17;1.80;;;1.70;;
79792;SDS011;69279;49.072;17.462;2023-04-24T02:28:43;2.20;;;1.88;;
79792;SDS011;69279;49.072;17.462;2023-04-24T02:31:08;1.88;;;1.70;;
79792;SDS011;69279;49.072;17.462;2023-04-24T02:33:34;2.10;;;1.90;;
79792;SDS011;69279;49.072;17.462;2023-04-24T02:36:00;2.08;;;1.65;;
79792;SDS011;69279;49.072;17.462;2023-04-24T02:38:26;1.88;;;1.67;;
79792;SDS011;69279;49.072;17.462;2023-04-24T02:40:51;2.15;;;1.77;;
79792;SDS011;69279;49.072;17.462;2023-04-24T02:43:17;1.98;;;1.73;;
79792;SDS011;69279;49.072;17.462;2023-04-24T02:45:42;1.92;;;1.75;;
79792;SDS011;69279;49.072;17.462;2023-04-24T02:48:07;1.73;;;1.63;;
79792;SDS011;69279;49.072;17.462;2023-04-24T02:50:33;2.17;;;1.73;;
79792;SDS011;69279;49.072;17.462;2023-04-24T02:52:58;1.67;;;1.58;;
79792;SDS011;69279;49.072;17.462;2023-04-24T02:55:24;2.33;;;1.83;;
79792;SDS011;69279;49.072;17.462;2023-04-24T02:57:50;1.83;;;1.63;;
79792;SDS011;69279;49.072;17.462;2023-04-24T03:00:15;1.98;;;1.73;;
79792;SDS011;69279;49.072;17.462;2023-04-24T03:02:41;1.63;;;1.52;;
79792;SDS011;69279;49.072;17.462;2023-04-24T03:05:07;2.05;;;1.85;;
79792;SDS011;69279;49.072;17.462;2023-04-24T03:07:32;2.47;;;1.90;;
79792;SDS011;69279;49.072;17.462;2023-04-24T03:09:58;2.78;;;1.73;;
79792;SDS011;69279;49.072;17.462;2023-04-24T03:12:24;1.70;;;1.55;;
79792;SDS011;69279;49.072;17.462;2023-04-24T03:14:49;2.10;;;1.77;;
79792;SDS011;69279;49.072;17.462;2023-04-24T03:17:15;1.70;;;1.55;;
79792;SDS011;69279;49.072;17.462;2023-04-24T03:19:40;2.30;;;1.90;;
79792;SDS011;69279;49.072;17.462;2023-04-24T03:22:06;2.10;;;1.90;;
79792;SDS011;69279;49.072;17.462;2023-04-24T03:24:31;2.17;;;1.98;;
79792;SDS011;69279;49.072;17.462;2023-04-24T03:26:57;1.70;;;1.40;;
79792;SDS011;69279;49.072;17.462;2023-04-24T03:29:22;2.00;;;1.80;;
79792;SDS011;69279;49.072;17.462;2023-04-24T03:31:48;1.80;;;1.65;;
79792;SDS011;69279;49.072;17.462;2023-04-24T03:34:13;1.50;;;1.40;;
79792;SDS011;69279;49.072;17.462;2023-04-24T03:36:39;1.50;;;1.40;;
79792;SDS011;69279;49.072;17.462;2023-04-24T03:39:04;2.05;;;1.80;;
79792;SDS011;69279;49.072;17.462;2023-04-24T03:41:30;1.60;;;1.50;;
79792;SDS011;69279;49.072;17.462;2023-04-24T03:43:55;2.38;;;1.55;;
79792;SDS011;69279;49.072;17.462;2023-04-24T03:46:21;1.88;;;1.55;;
79792;SDS011;69279;49.072;17.462;2023-04-24T03:48:46;1.67;;;1.55;;
79792;SDS011;69279;49.072;17.462;2023-04-24T03:51:12;2.20;;;2.00;;
79792;SDS011;69279;49.072;17.462;2023-04-24T03:53:37;1.75;;;1.60;;
79792;SDS011;69279;49.072;17.462;2023-04-24T03:56:02;1.73;;;1.63;;
79792;SDS011;69279;49.072;17.462;2023-04-24T03:58:28;1.65;;;1.55;;
79792;SDS011;69279;49.072;17.462;2023-04-24T04:00:53;2.00;;;1.80;;
79792;SDS011;69279;49.072;17.462;2023-04-24T04:03:18;2.05;;;1.67;;
79792;SDS011;69279;49.072;17.462;2023-04-24T04:05:44;2.00;;;1.80;;
79792;SDS011;69279;49.072;17.462;2023-04-24T04:08:10;1.95;;;1.75;;
79792;SDS011;69279;49.072;17.462;2023-04-24T04:10:35;2.28;;;1.73;;
79792;SDS011;69279;49.072;17.462;2023-04-24T04:13:00;1.70;;;1.60;;
79792;SDS011;69279;49.072;17.462;2023-04-24T04:15:26;2.05;;;1.70;;
79792;SDS011;69279;49.072;17.462;2023-04-24T04:17:51;2.00;;;1.80;;
79792;SDS011;69279;49.072;17.462;2023-04-24T04:20:16;2.25;;;1.80;;
79792;SDS011;69279;49.072;17.462;2023-04-24T04:22:42;2.05;;;1.85;;
79792;SDS011;69279;49.072;17.462;2023-04-24T04:25:07;2.10;;;1.85;;
79792;SDS011;69279;49.072;17.462;2023-04-24T04:27:33;2.40;;;1.90;;
79792;SDS011;69279;49.072;17.462;2023-04-24T04:29:59;2.03;;;1.80;;
79792;SDS011;69279;49.072;17.462;2023-04-24T04:32:30;2.00;;;1.80;;
79792;SDS011;69279;49.072;17.462;2023-04-24T04:34:58;2.00;;;1.80;;
79792;SDS011;69279;49.072;17.462;2023-04-24T04:37:23;1.88;;;1.73;;
79792;SDS011;69279;49.072;17.462;2023-04-24T04:39:50;1.92;;;1.65;;
79792;SDS011;69279;49.072;17.462;2023-04-24T04:42:15;1.80;;;1.60;;
79792;SDS011;69279;49.072;17.462;2023-04-24T04:44:41;3.28;;;1.75;;
79792;SDS011;69279;49.072;17.462;2023-04-24T04:47:06;2.38;;;1.92;;
79792;SDS011;69279;49.072;17.462;2023-04-24T04:49:32;1.80;;;1.70;;
79792;SDS011;69279;49.072;17.462;2023-04-24T04:51:58;2.20;;;2.00;;
79792;SDS011;69279;49.072;17.462;2023-04-24T04:54:23;2.28;;;1.90;;
79792;SDS011;69279;49.072;17.462;2023-04-24T04:56:50;1.75;;;1.60;;
79792;SDS011;69279;49.072;17.462;2023-04-24T04:59:15;1.80;;;1.60;;
79792;SDS011;69279;49.072;17.462;2023-04-24T05:01:41;1.92;;;1.70;;
79792;SDS011;69279;49.072;17.462;2023-04-24T05:04:06;2.20;;;2.00;;
79792;SDS011;69279;49.072;17.462;2023-04-24T05:06:31;2.15;;;1.63;;
79792;SDS011;69279;49.072;17.462;2023-04-24T05:08:57;2.13;;;1.92;;
79792;SDS011;69279;49.072;17.462;2023-04-24T05:11:23;2.22;;;1.90;;
79792;SDS011;69279;49.072;17.462;2023-04-24T05:13:48;2.35;;;1.80;;
79792;SDS011;69279;49.072;17.462;2023-04-24T05:16:13;3.00;;;2.00;;
79792;SDS011;69279;49.072;17.462;2023-04-24T05:18:39;2.30;;;1.80;;
79792;SDS011;69279;49.072;17.462;2023-04-24T05:21:05;2.70;;;1.98;;
79792;SDS011;69279;49.072;17.462;2023-04-24T05:23:31;3.08;;;1.92;;
79792;SDS011;69279;49.072;17.462;2023-04-24T05:25:56;2.97;;;1.98;;
79792;SDS011;69279;49.072;17.462;2023-04-24T05:28:25;5.50;;;2.10;;
79792;SDS011;69279;49.072;17.462;2023-04-24T05:30:53;2.92;;;1.95;;
79792;SDS011;69279;49.072;17.462;2023-04-24T05:33:21;2.67;;;2.20;;
79792;SDS011;69279;49.072;17.462;2023-04-24T05:35:47;2.17;;;1.98;;
79792;SDS011;69279;49.072;17.462;2023-04-24T05:38:16;2.17;;;1.83;;
79792;SDS011;69279;49.072;17.462;2023-04-24T05:40:49;2.38;;;1.98;;
79792;SDS011;69279;49.072;17.462;2023-04-24T05:43:17;2.42;;;1.83;;
79792;SDS011;69279;49.072;17.462;2023-04-24T05:45:46;2.15;;;1.90;;
79792;SDS011;69279;49.072;17.462;2023-04-24T05:48:13;3.28;;;2.28;;
79792;SDS011;69279;49.072;17.462;2023-04-24T05:50:45;2.25;;;2.00;;
79792;SDS011;69279;49.072;17.462;2023-04-24T05:53:13;3.50;;;1.90;;
79792;SDS011;69279;49.072;17.462;2023-04-24T05:55:39;2.45;;;1.85;;
79792;SDS011;69279;49.072;17.462;2023-04-24T05:58:08;3.38;;;2.00;;
79792;SDS011;69279;49.072;17.462;2023-04-24T06:00:34;2.53;;;2.33;;
79792;SDS011;69279;49.072;17.462;2023-04-24T06:05:32;2.13;;;1.98;;
79792;SDS011;69279;49.072;17.462;2023-04-24T06:07:58;2.50;;;2.30;;
79792;SDS011;69279;49.072;17.462;2023-04-24T06:10:40;2.75;;;1.95;;
79792;SDS011;69279;49.072;17.462;2023-04-24T06:13:10;2.85;;;2.40;;
79792;SDS011;69279;49.072;17.462;2023-04-24T06:15:37;3.53;;;2.25;;
79792;SDS011;69279;49.072;17.462;2023-04-24T06:18:03;6.00;;;3.38;;
79792;SDS011;69279;49.072;17.462;2023-04-24T06:20:38;4.45;;;3.22;;
79792;SDS011;69279;49.072;17.462;2023-04-24T06:23:04;5.45;;;3.65;;
79792;SDS011;69279;49.072;17.462;2023-04-24T06:25:29;7.45;;;4.32;;
79792;SDS011;69279;49.072;17.462;2023-04-24T06:27:55;5.28;;;3.58;;
79792;SDS011;69279;49.072;17.462;2023-04-24T06:30:21;5.00;;;3.63;;
79792;SDS011;69279;49.072;17.462;2023-04-24T06:32:48;6.60;;;3.55;;
79792;SDS011;69279;49.072;17.462;2023-04-24T06:35:13;5.18;;;3.88;;
79792;SDS011;69279;49.072;17.462;2023-04-24T06:37:40;5.45;;;3.35;;
79792;SDS011;69279;49.072;17.462;2023-04-24T06:40:13;4.50;;;3.03;;
79792;SDS011;69279;49.072;17.462;2023-04-24T06:42:40;5.03;;;3.75;;
79792;SDS011;69279;49.072;17.462;2023-04-24T06:45:08;4.72;;;3.55;;
79792;SDS011;69279;49.072;17.462;2023-04-24T06:50:35;3.33;;;3.03;;
79792;SDS011;69279;49.072;17.462;2023-04-24T06:53:01;4.68;;;3.45;;
79792;SDS011;69279;49.072;17.462;2023-04-24T06:55:26;3.13;;;2.72;;
79792;SDS011;69279;49.072;17.462;2023-04-24T06:57:53;3.78;;;3.20;;
79792;SDS011;69279;49.072;17.462;2023-04-24T07:00:20;5.03;;;3.60;;
79792;SDS011;69279;49.072;17.462;2023-04-24T07:02:52;3.67;;;2.85;;
79792;SDS011;69279;49.072;17.462;2023-04-24T07:05:18;5.45;;;3.58;;
79792;SDS011;69279;49.072;17.462;2023-04-24T07:07:45;4.13;;;2.90;;
79792;SDS011;69279;49.072;17.462;2023-04-24T07:10:12;4.22;;;3.25;;
79792;SDS011;69279;49.072;17.462;2023-04-24T07:12:38;5.50;;;3.05;;
79792;SDS011;69279;49.072;17.462;2023-04-24T07:15:06;3.85;;;3.30;;
79792;SDS011;69279;49.072;17.462;2023-04-24T07:17:33;4.30;;;3.20;;
79792;SDS011;69279;49.072;17.462;2023-04-24T07:20:00;3.80;;;3.22;;
79792;SDS011;69279;49.072;17.462;2023-04-24T07:22:30;3.63;;;2.92;;
79792;SDS011;69279;49.072;17.462;2023-04-24T07:24:56;4.25;;;3.00;;
79792;SDS011;69279;49.072;17.462;2023-04-24T07:27:22;4.68;;;3.05;;
79792;SDS011;69279;49.072;17.462;2023-04-24T07:29:48;3.78;;;2.97;;
79792;SDS011;69279;49.072;17.462;2023-04-24T07:35:10;3.25;;;2.95;;
79792;SDS011;69279;49.072;17.462;2023-04-24T07:37:37;4.70;;;3.33;;
79792;SDS011;69279;49.072;17.462;2023-04-24T07:40:05;6.45;;;3.30;;
79792;SDS011;69279;49.072;17.462;2023-04-24T07:43:03;6.07;;;3.05;;
79792;SDS011;69279;49.072;17.462;2023-04-24T07:45:35;6.57;;;3.00;;
79792;SDS011;69279;49.072;17.462;2023-04-24T07:48:06;8.35;;;3.40;;
79792;SDS011;69279;49.072;17.462;2023-04-24T07:50:42;5.93;;;3.15;;
79792;SDS011;69279;49.072;17.462;2023-04-24T07:53:12;6.65;;;3.40;;
79792;SDS011;69279;49.072;17.462;2023-04-24T07:55:38;8.80;;;4.00;;
79792;SDS011;69279;49.072;17.462;2023-04-24T07:58:04;6.60;;;3.20;;
79792;SDS011;69279;49.072;17.462;2023-04-24T08:00:30;7.72;;;3.03;;
79792;SDS011;69279;49.072;17.462;2023-04-24T08:02:56;5.07;;;3.08;;
79792;SDS011;69279;49.072;17.462;2023-04-24T08:05:22;5.57;;;3.38;;
79792;SDS011;69279;49.072;17.462;2023-04-24T08:07:47;6.25;;;3.30;;
79792;SDS011;69279;49.072;17.462;2023-04-24T08:10:15;6.68;;;3.33;;
79792;SDS011;69279;49.072;17.462;2023-04-24T08:12:42;5.88;;;3.50;;
79792;SDS011;69279;49.072;17.462;2023-04-24T08:15:10;10.43;;;3.60;;
79792;SDS011;69279;49.072;17.462;2023-04-24T08:17:36;8.50;;;3.33;;
79792;SDS011;69279;49.072;17.462;2023-04-24T08:20:02;6.22;;;3.50;;
79792;SDS011;69279;49.072;17.462;2023-04-24T08:22:30;5.95;;;3.38;;
79792;SDS011;69279;49.072;17.462;2023-04-24T08:24:59;6.18;;;3.28;;
79792;SDS011;69279;49.072;17.462;2023-04-24T08:27:26;8.57;;;3.60;;
79792;SDS011;69279;49.072;17.462;2023-04-24T08:29:57;4.18;;;3.08;;
79792;SDS011;69279;49.072;17.462;2023-04-24T08:35:03;6.07;;;3.10;;
79792;SDS011;69279;49.072;17.462;2023-04-24T08:37:37;8.80;;;3.47;;
79792;SDS011;69279;49.072;17.462;2023-04-24T08:40:15;4.38;;;3.00;;
79792;SDS011;69279;49.072;17.462;2023-04-24T08:42:46;4.72;;;3.22;;
79792;SDS011;69279;49.072;17.462;2023-04-24T08:45:16;4.88;;;3.67;;
79792;SDS011;69279;49.072;17.462;2023-04-24T08:47:46;3.92;;;3.35;;
79792;SDS011;69279;49.072;17.462;2023-04-24T08:52:49;5.18;;;3.40;;
79792;SDS011;69279;49.072;17.462;2023-04-24T08:55:16;5.47;;;3.28;;
79792;SDS011;69279;49.072;17.462;2023-04-24T08:57:45;6.75;;;3.35;;
79792;SDS011;69279;49.072;17.462;2023-04-24T09:00:16;3.75;;;3.28;;
79792;SDS011;69279;49.072;17.462;2023-04-24T09:02:46;4.40;;;3.05;;
79792;SDS011;69279;49.072;17.462;2023-04-24T09:05:16;4.25;;;3.17;;
79792;SDS011;69279;49.072;17.462;2023-04-24T09:07:44;4.30;;;3.38;;
79792;SDS011;69279;49.072;17.462;2023-04-24T09:10:12;4.97;;;2.95;;
79792;SDS011;69279;49.072;17.462;2023-04-24T09:12:39;3.28;;;2.95;;
79792;SDS011;69279;49.072;17.462;2023-04-24T09:15:12;6.05;;;3.17;;
79792;SDS011;69279;49.072;17.462;2023-04-24T09:17:41;5.13;;;3.20;;
79792;SDS011;69279;49.072;17.462;2023-04-24T09:20:07;5.85;;;3.10;;
79792;SDS011;69279;49.072;17.462;2023-04-24T09:22:36;3.60;;;3.08;;
79792;SDS011;69279;49.072;17.462;2023-04-24T09:25:11;6.10;;;3.58;;
79792;SDS011;69279;49.072;17.462;2023-04-24T09:27:43;5.32;;;3.25;;
79792;SDS011;69279;49.072;17.462;2023-04-24T09:30:12;6.38;;;3.13;;
79792;SDS011;69279;49.072;17.462;2023-04-24T09:32:40;4.55;;;3.20;;
79792;SDS011;69279;49.072;17.462;2023-04-24T09:35:31;5.28;;;2.90;;
79792;SDS011;69279;49.072;17.462;2023-04-24T09:38:03;4.82;;;3.20;;
79792;SDS011;69279;49.072;17.462;2023-04-24T09:40:44;4.05;;;3.25;;
79792;SDS011;69279;49.072;17.462;2023-04-24T09:43:11;7.47;;;3.42;;
79792;SDS011;69279;49.072;17.462;2023-04-24T09:45:39;6.80;;;3.38;;
79792;SDS011;69279;49.072;17.462;2023-04-24T09:48:09;7.00;;;3.42;;
79792;SDS011;69279;49.072;17.462;2023-04-24T09:50:35;5.45;;;3.40;;
79792;SDS011;69279;49.072;17.462;2023-04-24T09:53:04;7.30;;;3.58;;
79792;SDS011;69279;49.072;17.462;2023-04-24T09:56:18;9.52;;;3.75;;
79792;SDS011;69279;49.072;17.462;2023-04-24T09:58:49;10.88;;;4.03;;
79792;SDS011;69279;49.072;17.462;2023-04-24T10:01:14;6.05;;;3.95;;
79792;SDS011;69279;49.072;17.462;2023-04-24T10:03:41;10.52;;;4.03;;
79792;SDS011;69279;49.072;17.462;2023-04-24T10:06:08;7.63;;;4.20;;
79792;SDS011;69279;49.072;17.462;2023-04-24T10:08:37;8.48;;;4.53;;
79792;SDS011;69279;49.072;17.462;2023-04-24T10:11:03;5.57;;;4.03;;
79792;SDS011;69279;49.072;17.462;2023-04-24T10:13:31;7.53;;;3.67;;
79792;SDS011;69279;49.072;17.462;2023-04-24T10:16:03;5.50;;;3.60;;
79792;SDS011;69279;49.072;17.462;2023-04-24T10:18:35;8.02;;;4.00;;
79792;SDS011;69279;49.072;17.462;2023-04-24T10:21:06;10.38;;;4.22;;
79792;SDS011;69279;49.072;17.462;2023-04-24T10:23:37;6.53;;;4.20;;
79792;SDS011;69279;49.072;17.462;2023-04-24T10:26:06;5.97;;;3.90;;
79792;SDS011;69279;49.072;17.462;2023-04-24T10:28:46;7.28;;;4.10;;
79792;SDS011;69279;49.072;17.462;2023-04-24T10:31:21;6.78;;;3.83;;
79792;SDS011;69279;49.072;17.462;2023-04-24T10:33:51;6.28;;;3.70;;
79792;SDS011;69279;49.072;17.462;2023-04-24T10:36:22;6.93;;;3.90;;
79792;SDS011;69279;49.072;17.462;2023-04-24T10:38:48;6.22;;;4.63;;
79792;SDS011;69279;49.072;17.462;2023-04-24T10:41:18;6.97;;;4.43;;
79792;SDS011;69279;49.072;17.462;2023-04-24T10:46:42;5.80;;;4.20;;
79792;SDS011;69279;49.072;17.462;2023-04-24T10:49:09;6.88;;;4.10;;
79792;SDS011;69279;49.072;17.462;2023-04-24T10:51:46;6.55;;;3.85;;
79792;SDS011;69279;49.072;17.462;2023-04-24T10:54:48;5.68;;;3.97;;
79792;SDS011;69279;49.072;17.462;2023-04-24T10:59:51;7.28;;;4.15;;
79792;SDS011;69279;49.072;17.462;2023-04-24T11:02:42;5.00;;;3.92;;
79792;SDS011;69279;49.072;17.462;2023-04-24T11:05:48;9.07;;;4.03;;
79792;SDS011;69279;49.072;17.462;2023-04-24T11:08:23;8.10;;;4.03;;
79792;SDS011;69279;49.072;17.462;2023-04-24T11:11:36;7.80;;;4.10;;
79792;SDS011;69279;49.072;17.462;2023-04-24T11:20:38;7.38;;;4.28;;
79792;SDS011;69279;49.072;17.462;2023-04-24T11:23:36;7.45;;;4.50;;
79792;SDS011;69279;49.072;17.462;2023-04-24T11:26:19;6.75;;;4.10;;
79792;SDS011;69279;49.072;17.462;2023-04-24T11:29:07;10.60;;;4.68;;
79792;SDS011;69279;49.072;17.462;2023-04-24T11:31:38;7.30;;;4.30;;
79792;SDS011;69279;49.072;17.462;2023-04-24T11:34:19;9.43;;;4.55;;
79792;SDS011;69279;49.072;17.462;2023-04-24T11:36:52;7.38;;;4.57;;
79792;SDS011;69279;49.072;17.462;2023-04-24T11:39:20;8.07;;;4.28;;
79792;SDS011;69279;49.072;17.462;2023-04-24T11:41:46;9.45;;;4.47;;
79792;SDS011;69279;49.072;17.462;2023-04-24T11:44:12;7.10;;;4.03;;
79792;SDS011;69279;49.072;17.462;2023-04-24T11:46:39;8.90;;;4.38;;
79792;SDS011;69279;49.072;17.462;2023-04-24T11:49:05;7.82;;;4.20;;
79792;SDS011;69279;49.072;17.462;2023-04-24T11:51:31;9.30;;;4.50;;
79792;SDS011;69279;49.072;17.462;2023-04-24T11:53:57;8.13;;;4.57;;
79792;SDS011;69279;49.072;17.462;2023-04-24T11:56:24;8.38;;;4.65;;
79792;SDS011;69279;49.072;17.462;2023-04-24T11:58:54;9.63;;;4.68;;
79792;SDS011;69279;49.072;17.462;2023-04-24T12:01:42;8.55;;;4.57;;
79792;SDS011;69279;49.072;17.462;2023-04-24T12:04:17;10.52;;;4.57;;
79792;SDS011;69279;49.072;17.462;2023-04-24T12:07:01;9.00;;;4.30;;
79792;SDS011;69279;49.072;17.462;2023-04-24T12:09:32;9.18;;;4.63;;
79792;SDS011;69279;49.072;17.462;2023-04-24T12:12:13;11.43;;;4.35;;
79792;SDS011;69279;49.072;17.462;2023-04-24T12:14:44;8.05;;;4.57;;
79792;SDS011;69279;49.072;17.462;2023-04-24T12:17:15;9.13;;;4.32;;
79792;SDS011;69279;49.072;17.462;2023-04-24T12:19:49;7.03;;;4.80;;
79792;SDS011;69279;49.072;17.462;2023-04-24T12:22:20;7.40;;;4.55;;
79792;SDS011;69279;49.072;17.462;2023-04-24T12:25:04;11.75;;;4.60;;
79792;SDS011;69279;49.072;17.462;2023-04-24T12:27:31;8.02;;;4.63;;
79792;SDS011;69279;49.072;17.462;2023-04-24T12:29:58;7.00;;;4.80;;
79792;SDS011;69279;49.072;17.462;2023-04-24T12:32:26;6.53;;;4.28;;
79792;SDS011;69279;49.072;17.462;2023-04-24T12:34:53;8.07;;;4.85;;
79792;SDS011;69279;49.072;17.462;2023-04-24T12:37:19;7.68;;;3.95;;
79792;SDS011;69279;49.072;17.462;2023-04-24T12:42:36;6.43;;;4.20;;
79792;SDS011;69279;49.072;17.462;2023-04-24T12:45:08;5.90;;;4.03;;
79792;SDS011;69279;49.072;17.462;2023-04-24T12:47:37;7.40;;;4.30;;
79792;SDS011;69279;49.072;17.462;2023-04-24T12:50:03;7.70;;;4.28;;
79792;SDS011;69279;49.072;17.462;2023-04-24T12:52:30;5.93;;;4.25;;
79792;SDS011;69279;49.072;17.462;2023-04-24T12:54:56;8.13;;;3.95;;
79792;SDS011;69279;49.072;17.462;2023-04-24T12:57:23;6.78;;;3.75;;
79792;SDS011;69279;49.072;17.462;2023-04-24T12:59:49;7.35;;;3.92;;
79792;SDS011;69279;49.072;17.462;2023-04-24T13:02:15;5.18;;;4.20;;
79792;SDS011;69279;49.072;17.462;2023-04-24T13:04:44;6.82;;;3.95;;
79792;SDS011;69279;49.072;17.462;2023-04-24T13:07:11;7.05;;;3.72;;
79792;SDS011;69279;49.072;17.462;2023-04-24T13:09:37;9.10;;;4.60;;
79792;SDS011;69279;49.072;17.462;2023-04-24T13:12:03;8.63;;;4.85;;
79792;SDS011;69279;49.072;17.462;2023-04-24T13:14:30;5.88;;;4.43;;
79792;SDS011;69279;49.072;17.462;2023-04-24T13:16:56;6.95;;;4.50;;
79792;SDS011;69279;49.072;17.462;2023-04-24T13:19:23;8.85;;;4.88;;
79792;SDS011;69279;49.072;17.462;2023-04-24T13:21:50;6.55;;;4.43;;
79792;SDS011;69279;49.072;17.462;2023-04-24T13:24:15;6.53;;;4.00;;
79792;SDS011;69279;49.072;17.462;2023-04-24T13:26:41;5.53;;;4.32;;
79792;SDS011;69279;49.072;17.462;2023-04-24T13:29:06;5.53;;;3.72;;
79792;SDS011;69279;49.072;17.462;2023-04-24T13:31:32;6.57;;;4.30;;
79792;SDS011;69279;49.072;17.462;2023-04-24T13:33:59;5.82;;;4.00;;
79792;SDS011;69279;49.072;17.462;2023-04-24T13:36:24;8.02;;;3.92;;
79792;SDS011;69279;49.072;17.462;2023-04-24T13:38:50;6.13;;;4.20;;
79792;SDS011;69279;49.072;17.462;2023-04-24T13:41:15;7.30;;;3.95;;
79792;SDS011;69279;49.072;17.462;2023-04-24T13:43:41;4.80;;;3.65;;
79792;SDS011;69279;49.072;17.462;2023-04-24T13:46:07;6.60;;;4.03;;
79792;SDS011;69279;49.072;17.462;2023-04-24T13:48:33;6.72;;;4.05;;
79792;SDS011;69279;49.072;17.462;2023-04-24T13:50:58;6.85;;;4.28;;
79792;SDS011;69279;49.072;17.462;2023-04-24T13:53:23;5.22;;;3.90;;
79792;SDS011;69279;49.072;17.462;2023-04-24T13:55:49;6.18;;;4.00;;
79792;SDS011;69279;49.072;17.462;2023-04-24T13:58:14;6.38;;;4.07;;
79792;SDS011;69279;49.072;17.462;2023-04-24T14:00:40;6.82;;;4.30;;
79792;SDS011;69279;49.072;17.462;2023-04-24T14:03:05;6.00;;;4.35;;
79792;SDS011;69279;49.072;17.462;2023-04-24T14:05:31;6.50;;;4.20;;
79792;SDS011;69279;49.072;17.462;2023-04-24T14:07:56;6.20;;;3.70;;
79792;SDS011;69279;49.072;17.462;2023-04-24T14:10:22;4.88;;;3.83;;
79792;SDS011;69279;49.072;17.462;2023-04-24T14:12:47;5.22;;;3.67;;
79792;SDS011;69279;49.072;17.462;2023-04-24T14:15:13;5.82;;;3.90;;
79792;SDS011;69279;49.072;17.462;2023-04-24T14:17:41;4.35;;;3.95;;
79792;SDS011;69279;49.072;17.462;2023-04-24T14:20:08;5.28;;;3.85;;
79792;SDS011;69279;49.072;17.462;2023-04-24T14:22:34;4.57;;;3.78;;
79792;SDS011;69279;49.072;17.462;2023-04-24T14:24:59;4.78;;;4.10;;
79792;SDS011;69279;49.072;17.462;2023-04-24T14:27:25;5.68;;;3.97;;
79792;SDS011;69279;49.072;17.462;2023-04-24T14:29:51;5.45;;;4.32;;
79792;SDS011;69279;49.072;17.462;2023-04-24T14:32:17;6.03;;;4.20;;
79792;SDS011;69279;49.072;17.462;2023-04-24T14:34:42;5.82;;;4.10;;
79792;SDS011;69279;49.072;17.462;2023-04-24T14:37:08;6.18;;;3.88;;
79792;SDS011;69279;49.072;17.462;2023-04-24T14:39:33;5.38;;;4.00;;
79792;SDS011;69279;49.072;17.462;2023-04-24T14:41:59;4.38;;;3.90;;
79792;SDS011;69279;49.072;17.462;2023-04-24T14:44:26;5.18;;;3.65;;
79792;SDS011;69279;49.072;17.462;2023-04-24T14:46:51;4.47;;;3.65;;
79792;SDS011;69279;49.072;17.462;2023-04-24T14:49:16;5.70;;;4.13;;
79792;SDS011;69279;49.072;17.462;2023-04-24T14:51:44;4.45;;;3.90;;
79792;SDS011;69279;49.072;17.462;2023-04-24T14:54:09;5.72;;;3.90;;
79792;SDS011;69279;49.072;17.462;2023-04-24T14:56:35;5.65;;;3.83;;
79792;SDS011;69279;49.072;17.462;2023-04-24T14:59:00;5.40;;;3.65;;
79792;SDS011;69279;49.072;17.462;2023-04-24T15:01:26;5.80;;;3.63;;
79792;SDS011;69279;49.072;17.462;2023-04-24T15:03:51;5.05;;;4.10;;
79792;SDS011;69279;49.072;17.462;2023-04-24T15:06:17;5.57;;;3.63;;